Vistas de Luquillo, Puerto Rico
Current Conditions -  °F | °C
As of 6:53 AM on Friday 24 Oct 2014 (Local Time) from TJNR Reporting Station
Clear Clear  
Wind Chill: 79°   Ceiling: Unl
Heat Index: 83°   Visibility: 10mi
Dew Point: 76°   Wind: 0mph
Humidity: 90%   Direction: NA
Pressure: 29.96"   Gusts: NA
Location:  18.3744°N, 65.7168°W
Report Text: TJNR 241053Z AUTO 00000KT 10SM CLR 26/24 A2996 RMK AO2 SLP146 T02610244 $
Loading
Personal Weather Stations






























Interactive Weather Map
Tropical Storm Tracking
New forecast layout! Learn more

10-Day Weather Forecast

Advertisements
Track Severe Weather on mobile